EZY54C EGKK-LFBO
Flight info
| Callsign | EZY54C |
|---|---|
| Flight time | 1h 31m |
| Altitude | 35000 |
| Route | SFD Y47 BENBO UY47 DRAKE L151 SITET UN859 SOPIL DCT BALAN DCT EVPOK DCT NARAK |
| Aircraft | A319/M-SDE3FGHIRWY/LB1 |
Departure
| Time | 2026-05-04 10:52 |
|---|---|
| Airport | London Gatwick Airport (EGKK) |
Arrival
| Time | 2026-05-04 12:23 |
|---|---|
| Airport | Toulouse-Blagnac Airport (LFBO) |
| Time | Latitude | Longitude | Altitude | Speed | Heading |
|---|---|---|---|---|---|
| 2026-05-04 10:25 | 51.15404 | -0.17860 | 204 ft | 0 kts | 167° |
| 2026-05-04 10:39 | 51.15423 | -0.17866 | 211 ft | 4 kts | 167° |
| 2026-05-04 10:39 | 51.15449 | -0.17875 | 204 ft | 4 kts | 167° |
| 2026-05-04 10:40 | 51.15470 | -0.17882 | 214 ft | 4 kts | 182° |
| 2026-05-04 10:40 | 51.15488 | -0.17869 | 204 ft | 4 kts | 252° |
| 2026-05-04 10:40 | 51.15493 | -0.17836 | 207 ft | 1 kts | 258° |
| 2026-05-04 10:40 | 51.15493 | -0.17835 | 207 ft | 0 kts | 258° |
| 2026-05-04 10:42 | 51.15492 | -0.17843 | 213 ft | 3 kts | 258° |
| 2026-05-04 10:42 | 51.15476 | -0.17965 | 204 ft | 16 kts | 258° |
| 2026-05-04 10:43 | 51.15451 | -0.18139 | 204 ft | 9 kts | 256° |
| 2026-05-04 10:44 | 51.15184 | -0.18235 | 211 ft | 8 kts | 265° |
| 2026-05-04 10:45 | 51.15180 | -0.18370 | 204 ft | 15 kts | 258° |
| 2026-05-04 10:45 | 51.15156 | -0.18547 | 206 ft | 17 kts | 257° |
| 2026-05-04 10:45 | 51.15130 | -0.18734 | 203 ft | 18 kts | 257° |
| 2026-05-04 10:45 | 51.15103 | -0.18929 | 204 ft | 18 kts | 257° |
| 2026-05-04 10:46 | 51.15075 | -0.19127 | 204 ft | 16 kts | 257° |
| 2026-05-04 10:46 | 51.15063 | -0.19217 | 204 ft | 0 kts | 258° |
| 2026-05-04 10:46 | 51.15059 | -0.19236 | 204 ft | 9 kts | 245° |
| 2026-05-04 10:46 | 51.14986 | -0.19267 | 206 ft | 11 kts | 187° |
| 2026-05-04 10:47 | 51.14950 | -0.19366 | 209 ft | 12 kts | 255° |
| 2026-05-04 10:47 | 51.14927 | -0.19540 | 211 ft | 20 kts | 258° |
| 2026-05-04 10:47 | 51.14894 | -0.19784 | 209 ft | 26 kts | 257° |
| 2026-05-04 10:47 | 51.14885 | -0.19846 | 216 ft | 26 kts | 257° |
| 2026-05-04 10:49 | 51.14690 | -0.21256 | 207 ft | 14 kts | 257° |
| 2026-05-04 10:49 | 51.14623 | -0.21328 | 204 ft | 11 kts | 172° |
| 2026-05-04 10:50 | 51.14612 | -0.21325 | 204 ft | 0 kts | 167° |
| 2026-05-04 10:51 | 51.14663 | -0.20127 | 206 ft | 119 kts | 77° |
| 2026-05-04 10:52 | 51.14884 | -0.18561 | 383 ft | 158 kts | 75° |
| 2026-05-04 10:52 | 51.15118 | -0.16885 | 1166 ft | 154 kts | 76° |
| 2026-05-04 10:52 | 51.15379 | -0.15262 | 1966 ft | 150 kts | 75° |
| 2026-05-04 10:54 | 51.11600 | -0.03458 | 6550 ft | 268 kts | 173° |
| 2026-05-04 10:54 | 51.09732 | -0.03092 | 7479 ft | 274 kts | 173° |
| 2026-05-04 10:56 | 50.97420 | 0.02135 | 11589 ft | 290 kts | 165° |
| 2026-05-04 10:56 | 50.95475 | 0.03066 | 12502 ft | 293 kts | 165° |
| 2026-05-04 10:56 | 50.93509 | 0.04000 | 13399 ft | 297 kts | 165° |
| 2026-05-04 10:57 | 50.91513 | 0.04942 | 14231 ft | 301 kts | 165° |
| 2026-05-04 10:57 | 50.89493 | 0.05892 | 15008 ft | 305 kts | 165° |
| 2026-05-04 10:57 | 50.87531 | 0.06811 | 15763 ft | 308 kts | 165° |
| 2026-05-04 10:57 | 50.85467 | 0.07780 | 16586 ft | 311 kts | 165° |
| 2026-05-04 10:58 | 50.83380 | 0.08762 | 17383 ft | 314 kts | 165° |
| 2026-05-04 10:58 | 50.81272 | 0.09752 | 18172 ft | 318 kts | 165° |
| 2026-05-04 10:58 | 50.79135 | 0.10750 | 18868 ft | 321 kts | 165° |
| 2026-05-04 10:58 | 50.76953 | 0.11540 | 19543 ft | 323 kts | 175° |
| 2026-05-04 10:59 | 50.74686 | 0.11596 | 20009 ft | 333 kts | 187° |
| 2026-05-04 10:59 | 50.72347 | 0.10872 | 20140 ft | 353 kts | 194° |
| 2026-05-04 10:59 | 50.69899 | 0.09949 | 20302 ft | 371 kts | 194° |
| 2026-05-04 10:59 | 50.67350 | 0.09003 | 20751 ft | 379 kts | 194° |
| 2026-05-04 11:00 | 50.64765 | 0.08058 | 21356 ft | 383 kts | 193° |
| 2026-05-04 11:01 | 50.46362 | 0.01462 | 25441 ft | 393 kts | 193° |
| 2026-05-04 11:02 | 50.43692 | 0.00508 | 25957 ft | 394 kts | 193° |
| 2026-05-04 11:02 | 50.41015 | -0.00455 | 26477 ft | 395 kts | 193° |
| 2026-05-04 11:05 | 50.02618 | 0.02932 | 32192 ft | 421 kts | 168° |
| 2026-05-04 11:06 | 49.99775 | 0.04049 | 32624 ft | 421 kts | 168° |
| 2026-05-04 11:06 | 49.96939 | 0.05159 | 33051 ft | 420 kts | 168° |
| 2026-05-04 11:06 | 49.94101 | 0.06270 | 33480 ft | 420 kts | 167° |
| 2026-05-04 11:06 | 49.91266 | 0.07378 | 33921 ft | 419 kts | 167° |
| 2026-05-04 11:08 | 49.71413 | 0.15133 | 35027 ft | 421 kts | 167° |
| 2026-05-04 11:10 | 49.51571 | 0.23084 | 35031 ft | 421 kts | 167° |
| 2026-05-04 11:12 | 49.28873 | 0.32159 | 34983 ft | 421 kts | 167° |
| 2026-05-04 11:12 | 49.23205 | 0.34542 | 34977 ft | 422 kts | 166° |
| 2026-05-04 11:13 | 49.17552 | 0.36962 | 34962 ft | 422 kts | 166° |
| 2026-05-04 11:13 | 49.11898 | 0.39354 | 34968 ft | 422 kts | 167° |
| 2026-05-04 11:14 | 49.06235 | 0.41729 | 34961 ft | 422 kts | 167° |
| 2026-05-04 11:16 | 48.83690 | 0.51104 | 34968 ft | 420 kts | 166° |
| 2026-05-04 11:16 | 48.78053 | 0.53438 | 34967 ft | 419 kts | 167° |
| 2026-05-04 11:17 | 48.72411 | 0.55687 | 34964 ft | 419 kts | 167° |
| 2026-05-04 11:19 | 48.49816 | 0.64474 | 34955 ft | 419 kts | 167° |
| 2026-05-04 11:19 | 48.44183 | 0.66763 | 34953 ft | 419 kts | 167° |
| 2026-05-04 11:20 | 48.38546 | 0.69077 | 34954 ft | 419 kts | 167° |
| 2026-05-04 11:20 | 48.32916 | 0.71373 | 34954 ft | 420 kts | 167° |
| 2026-05-04 11:22 | 48.11287 | 0.79966 | 34967 ft | 420 kts | 167° |
| 2026-05-04 11:23 | 48.05635 | 0.82172 | 34966 ft | 420 kts | 167° |
| 2026-05-04 11:25 | 47.85890 | 0.89871 | 34969 ft | 418 kts | 167° |
| 2026-05-04 11:25 | 47.80268 | 0.92056 | 34967 ft | 417 kts | 167° |
| 2026-05-04 11:27 | 47.55020 | 1.01803 | 34942 ft | 416 kts | 168° |
| 2026-05-04 11:28 | 47.49443 | 1.03948 | 34951 ft | 417 kts | 168° |
| 2026-05-04 11:28 | 47.43814 | 1.06010 | 34947 ft | 415 kts | 173° |
| 2026-05-04 11:29 | 47.38074 | 1.06322 | 34941 ft | 413 kts | 182° |
| 2026-05-04 11:29 | 47.32325 | 1.06178 | 34948 ft | 412 kts | 182° |
| 2026-05-04 11:33 | 46.92200 | 1.05083 | 34945 ft | 413 kts | 183° |
| 2026-05-04 11:33 | 46.86455 | 1.04809 | 34937 ft | 413 kts | 183° |
| 2026-05-04 11:34 | 46.80712 | 1.04558 | 34933 ft | 413 kts | 183° |
| 2026-05-04 11:34 | 46.74963 | 1.04317 | 34934 ft | 413 kts | 183° |
| 2026-05-04 11:35 | 46.69203 | 1.04070 | 34938 ft | 414 kts | 183° |
| 2026-05-04 11:35 | 46.63433 | 1.03827 | 34937 ft | 414 kts | 183° |
| 2026-05-04 11:36 | 46.57679 | 1.03588 | 34933 ft | 413 kts | 183° |
| 2026-05-04 11:36 | 46.51920 | 1.03505 | 34931 ft | 415 kts | 177° |
| 2026-05-04 11:37 | 46.46242 | 1.05131 | 34936 ft | 417 kts | 169° |
| 2026-05-04 11:37 | 46.40583 | 1.07028 | 34934 ft | 417 kts | 169° |
| 2026-05-04 11:38 | 46.34922 | 1.08910 | 34937 ft | 417 kts | 170° |
| 2026-05-04 11:38 | 46.29301 | 1.10784 | 34941 ft | 417 kts | 170° |
| 2026-05-04 11:39 | 46.23645 | 1.12673 | 34951 ft | 417 kts | 170° |
| 2026-05-04 11:41 | 46.03837 | 1.19213 | 34938 ft | 417 kts | 170° |
| 2026-05-04 11:41 | 45.98183 | 1.21077 | 34955 ft | 417 kts | 170° |
| 2026-05-04 11:42 | 45.92530 | 1.22938 | 34956 ft | 416 kts | 170° |
| 2026-05-04 11:42 | 45.86916 | 1.24784 | 34963 ft | 416 kts | 170° |
| 2026-05-04 11:43 | 45.81268 | 1.26630 | 34965 ft | 416 kts | 171° |
| 2026-05-04 11:43 | 45.75620 | 1.28471 | 34961 ft | 416 kts | 171° |
| 2026-05-04 11:44 | 45.69973 | 1.30305 | 34943 ft | 416 kts | 171° |
| 2026-05-04 11:44 | 45.64330 | 1.32135 | 34947 ft | 416 kts | 171° |
| 2026-05-04 11:45 | 45.58685 | 1.33967 | 34947 ft | 416 kts | 171° |
| 2026-05-04 11:45 | 45.53037 | 1.35804 | 34935 ft | 416 kts | 171° |
| 2026-05-04 11:46 | 45.47384 | 1.37637 | 34942 ft | 416 kts | 171° |
| 2026-05-04 11:46 | 45.41717 | 1.39469 | 34944 ft | 416 kts | 171° |
| 2026-05-04 11:47 | 45.36105 | 1.41267 | 34937 ft | 417 kts | 171° |
| 2026-05-04 11:47 | 45.30442 | 1.43076 | 34938 ft | 417 kts | 171° |
| 2026-05-04 11:48 | 45.24777 | 1.44900 | 34940 ft | 417 kts | 171° |
| 2026-05-04 11:48 | 45.19112 | 1.46715 | 34941 ft | 417 kts | 171° |
| 2026-05-04 11:49 | 45.13443 | 1.48522 | 34934 ft | 417 kts | 171° |
| 2026-05-04 11:49 | 45.07812 | 1.50318 | 34936 ft | 417 kts | 172° |
| 2026-05-04 11:50 | 45.02142 | 1.52113 | 34938 ft | 418 kts | 172° |
| 2026-05-04 11:50 | 44.96474 | 1.53908 | 34918 ft | 417 kts | 172° |
| 2026-05-04 11:51 | 44.90813 | 1.55707 | 34936 ft | 417 kts | 172° |
| 2026-05-04 11:51 | 44.85148 | 1.57503 | 34939 ft | 417 kts | 172° |
| 2026-05-04 11:52 | 44.79474 | 1.59284 | 34941 ft | 418 kts | 172° |
| 2026-05-04 11:52 | 44.73796 | 1.61066 | 34945 ft | 418 kts | 172° |
| 2026-05-04 11:53 | 44.68121 | 1.62852 | 34952 ft | 418 kts | 172° |
| 2026-05-04 11:53 | 44.65280 | 1.63745 | 34748 ft | 418 kts | 172° |
| 2026-05-04 11:53 | 44.62420 | 1.64640 | 33681 ft | 425 kts | 172° |
| 2026-05-04 11:53 | 44.59510 | 1.65547 | 32521 ft | 430 kts | 172° |
| 2026-05-04 11:55 | 44.38938 | 1.71979 | 25488 ft | 424 kts | 170° |
| 2026-05-04 11:55 | 44.36072 | 1.72869 | 24664 ft | 420 kts | 170° |
| 2026-05-04 11:56 | 44.33222 | 1.73619 | 23880 ft | 413 kts | 177° |
| 2026-05-04 11:56 | 44.30379 | 1.73547 | 23084 ft | 406 kts | 189° |
| 2026-05-04 11:56 | 44.27668 | 1.72576 | 22265 ft | 400 kts | 201° |
| 2026-05-04 11:56 | 44.25222 | 1.70783 | 21499 ft | 396 kts | 213° |
| 2026-05-04 11:57 | 44.22968 | 1.68608 | 20729 ft | 393 kts | 214° |
| 2026-05-04 11:57 | 44.20731 | 1.66451 | 20006 ft | 389 kts | 214° |
| 2026-05-04 11:57 | 44.18502 | 1.64314 | 19322 ft | 387 kts | 214° |
| 2026-05-04 11:57 | 44.16312 | 1.62221 | 19039 ft | 375 kts | 214° |
| 2026-05-04 11:58 | 44.14192 | 1.60199 | 18934 ft | 366 kts | 213° |
| 2026-05-04 11:58 | 44.12098 | 1.58206 | 18958 ft | 364 kts | 213° |
| 2026-05-04 11:58 | 44.10007 | 1.56218 | 18953 ft | 364 kts | 213° |
| 2026-05-04 11:58 | 44.07915 | 1.54225 | 18957 ft | 364 kts | 213° |
| 2026-05-04 11:59 | 44.05829 | 1.52239 | 18970 ft | 364 kts | 213° |
| 2026-05-04 11:59 | 44.03733 | 1.50243 | 18635 ft | 366 kts | 214° |
| 2026-05-04 11:59 | 44.01919 | 1.47816 | 18024 ft | 362 kts | 232° |
| 2026-05-04 11:59 | 44.00635 | 1.44819 | 17258 ft | 360 kts | 239° |
| 2026-05-04 12:00 | 43.99438 | 1.41786 | 16498 ft | 357 kts | 241° |
| 2026-05-04 12:00 | 43.98712 | 1.38506 | 15795 ft | 358 kts | 261° |
| 2026-05-04 12:00 | 43.98898 | 1.35058 | 15096 ft | 361 kts | 282° |
| 2026-05-04 12:00 | 43.99967 | 1.31896 | 14417 ft | 364 kts | 300° |
| 2026-05-04 12:01 | 44.01687 | 1.29320 | 13737 ft | 367 kts | 321° |
| 2026-05-04 12:01 | 44.03909 | 1.27576 | 13005 ft | 366 kts | 332° |
| 2026-05-04 12:02 | 44.17188 | 1.27727 | 9611 ft | 321 kts | 53° |
| 2026-05-04 12:03 | 44.18266 | 1.30315 | 9407 ft | 299 kts | 71° |
| 2026-05-04 12:03 | 44.18760 | 1.33023 | 9075 ft | 283 kts | 86° |
| 2026-05-04 12:03 | 44.18729 | 1.35713 | 8581 ft | 277 kts | 101° |
| 2026-05-04 12:03 | 44.18199 | 1.38258 | 8420 ft | 272 kts | 116° |
| 2026-05-04 12:04 | 44.17254 | 1.40518 | 8291 ft | 269 kts | 130° |
| 2026-05-04 12:04 | 44.15953 | 1.42371 | 8166 ft | 267 kts | 143° |
| 2026-05-04 12:04 | 44.14384 | 1.43709 | 8039 ft | 264 kts | 158° |
| 2026-05-04 12:04 | 44.12640 | 1.44457 | 7943 ft | 261 kts | 172° |
| 2026-05-04 12:05 | 44.10831 | 1.44626 | 7954 ft | 261 kts | 180° |
| 2026-05-04 12:05 | 44.09009 | 1.44664 | 7952 ft | 262 kts | 180° |
| 2026-05-04 12:05 | 44.07191 | 1.44708 | 7952 ft | 262 kts | 180° |
| 2026-05-04 12:05 | 44.05368 | 1.44752 | 7953 ft | 262 kts | 180° |
| 2026-05-04 12:06 | 44.03546 | 1.44796 | 7951 ft | 262 kts | 180° |
| 2026-05-04 12:06 | 44.01726 | 1.44839 | 7950 ft | 262 kts | 180° |
| 2026-05-04 12:06 | 43.99904 | 1.44886 | 7953 ft | 263 kts | 180° |
| 2026-05-04 12:06 | 43.98078 | 1.44849 | 7952 ft | 262 kts | 185° |
| 2026-05-04 12:07 | 43.96269 | 1.44503 | 7952 ft | 262 kts | 190° |
| 2026-05-04 12:07 | 43.94472 | 1.44076 | 7953 ft | 262 kts | 190° |
| 2026-05-04 12:07 | 43.92698 | 1.43655 | 7954 ft | 262 kts | 190° |
| 2026-05-04 12:07 | 43.90878 | 1.43219 | 7950 ft | 262 kts | 190° |
| 2026-05-04 12:08 | 43.89689 | 1.42934 | 7944 ft | 262 kts | 190° |
| 2026-05-04 12:08 | 43.87895 | 1.42504 | 7946 ft | 262 kts | 190° |
| 2026-05-04 12:08 | 43.85499 | 1.42088 | 7947 ft | 263 kts | 181° |
| 2026-05-04 12:08 | 43.83676 | 1.42278 | 7949 ft | 263 kts | 171° |
| 2026-05-04 12:09 | 43.81908 | 1.42937 | 7946 ft | 264 kts | 160° |
| 2026-05-04 12:09 | 43.80249 | 1.44031 | 7946 ft | 265 kts | 150° |
| 2026-05-04 12:09 | 43.79239 | 1.44980 | 7946 ft | 266 kts | 143° |
| 2026-05-04 12:09 | 43.77782 | 1.46560 | 7945 ft | 266 kts | 143° |
| 2026-05-04 12:10 | 43.76325 | 1.48131 | 7945 ft | 266 kts | 143° |
| 2026-05-04 12:10 | 43.74864 | 1.49699 | 7946 ft | 266 kts | 143° |
| 2026-05-04 12:10 | 43.73403 | 1.51266 | 7945 ft | 266 kts | 143° |
| 2026-05-04 12:10 | 43.71941 | 1.52834 | 7916 ft | 266 kts | 143° |
| 2026-05-04 12:11 | 43.70483 | 1.54398 | 7778 ft | 265 kts | 143° |
| 2026-05-04 12:11 | 43.69029 | 1.55955 | 7659 ft | 264 kts | 143° |
| 2026-05-04 12:11 | 43.67586 | 1.57505 | 7533 ft | 262 kts | 143° |
| 2026-05-04 12:11 | 43.66148 | 1.59049 | 7412 ft | 262 kts | 143° |
| 2026-05-04 12:12 | 43.64708 | 1.60592 | 7285 ft | 262 kts | 143° |
| 2026-05-04 12:12 | 43.63225 | 1.62035 | 7161 ft | 261 kts | 153° |
| 2026-05-04 12:12 | 43.61543 | 1.62926 | 7041 ft | 258 kts | 168° |
| 2026-05-04 12:12 | 43.59769 | 1.63166 | 6915 ft | 256 kts | 182° |
| 2026-05-04 12:13 | 43.57994 | 1.62897 | 6794 ft | 258 kts | 187° |
| 2026-05-04 12:14 | 43.46638 | 1.63162 | 5602 ft | 228 kts | 174° |
| 2026-05-04 12:15 | 43.45069 | 1.63337 | 5477 ft | 222 kts | 175° |
| 2026-05-04 12:15 | 43.43541 | 1.63510 | 5227 ft | 220 kts | 175° |
| 2026-05-04 12:15 | 43.42018 | 1.63654 | 4878 ft | 220 kts | 180° |
| 2026-05-04 12:15 | 43.40556 | 1.63111 | 4543 ft | 221 kts | 210° |
| 2026-05-04 12:16 | 43.39480 | 1.61677 | 4397 ft | 214 kts | 238° |
| 2026-05-04 12:16 | 43.39053 | 1.59806 | 4275 ft | 207 kts | 267° |
| 2026-05-04 12:16 | 43.39309 | 1.57910 | 4154 ft | 200 kts | 295° |
| 2026-05-04 12:16 | 43.40138 | 1.56415 | 3955 ft | 196 kts | 322° |
| 2026-05-04 12:17 | 43.41337 | 1.55565 | 3720 ft | 195 kts | 343° |
| 2026-05-04 12:17 | 43.42621 | 1.54941 | 3433 ft | 198 kts | 342° |
| 2026-05-04 12:17 | 43.43924 | 1.54300 | 3187 ft | 199 kts | 342° |
| 2026-05-04 12:17 | 43.45226 | 1.53649 | 3026 ft | 200 kts | 342° |
| 2026-05-04 12:18 | 43.46517 | 1.52943 | 2990 ft | 200 kts | 333° |
| 2026-05-04 12:18 | 43.47691 | 1.51907 | 2996 ft | 197 kts | 326° |
| 2026-05-04 12:18 | 43.48775 | 1.50813 | 2990 ft | 192 kts | 325° |
| 2026-05-04 12:18 | 43.49839 | 1.49717 | 2993 ft | 190 kts | 324° |
| 2026-05-04 12:19 | 43.50889 | 1.48631 | 2996 ft | 189 kts | 326° |
| 2026-05-04 12:19 | 43.51942 | 1.47542 | 2892 ft | 190 kts | 325° |
| 2026-05-04 12:19 | 43.52989 | 1.46458 | 2698 ft | 185 kts | 326° |
| 2026-05-04 12:19 | 43.53973 | 1.45435 | 2457 ft | 169 kts | 327° |
| 2026-05-04 12:20 | 43.54879 | 1.44495 | 2252 ft | 157 kts | 325° |
| 2026-05-04 12:20 | 43.55700 | 1.43643 | 2049 ft | 141 kts | 326° |
| 2026-05-04 12:20 | 43.56457 | 1.42859 | 1868 ft | 136 kts | 326° |
| 2026-05-04 12:20 | 43.57208 | 1.42081 | 1690 ft | 135 kts | 326° |
| 2026-05-04 12:21 | 43.57956 | 1.41305 | 1517 ft | 134 kts | 327° |
| 2026-05-04 12:21 | 43.58705 | 1.40539 | 1348 ft | 134 kts | 325° |
| 2026-05-04 12:21 | 43.59447 | 1.39771 | 1124 ft | 132 kts | 323° |
| 2026-05-04 12:21 | 43.60178 | 1.39003 | 946 ft | 133 kts | 323° |
| 2026-05-04 12:22 | 43.60911 | 1.38234 | 770 ft | 132 kts | 322° |
| 2026-05-04 12:22 | 43.61641 | 1.37472 | 619 ft | 132 kts | 323° |
| 2026-05-04 12:22 | 43.62360 | 1.36733 | 496 ft | 120 kts | 324° |
| 2026-05-04 12:22 | 43.62917 | 1.36150 | 488 ft | 81 kts | 323° |
| 2026-05-04 12:23 | 43.63269 | 1.35781 | 489 ft | 53 kts | 323° |
| 2026-05-04 12:23 | 43.63475 | 1.35569 | 490 ft | 29 kts | 324° |
| 2026-05-04 12:23 | 43.63577 | 1.35507 | 494 ft | 11 kts | 26° |
| 2026-05-04 12:23 | 43.63649 | 1.35627 | 492 ft | 13 kts | 53° |
| 2026-05-04 12:24 | 43.63703 | 1.35728 | 492 ft | 14 kts | 53° |
| 2026-05-04 12:24 | 43.63772 | 1.35854 | 491 ft | 18 kts | 52° |
| 2026-05-04 12:24 | 43.63819 | 1.35981 | 494 ft | 10 kts | 108° |
| 2026-05-04 12:24 | 43.63756 | 1.36056 | 488 ft | 15 kts | 143° |
| 2026-05-04 12:25 | 43.63655 | 1.36159 | 494 ft | 20 kts | 143° |
| 2026-05-04 12:25 | 43.63535 | 1.36284 | 492 ft | 22 kts | 143° |
| 2026-05-04 12:25 | 43.63407 | 1.36416 | 485 ft | 23 kts | 142° |
| 2026-05-04 12:25 | 43.63285 | 1.36543 | 492 ft | 19 kts | 143° |
| 2026-05-04 12:26 | 43.63273 | 1.36677 | 487 ft | 16 kts | 57° |
| 2026-05-04 12:26 | 43.63333 | 1.36809 | 491 ft | 12 kts | 55° |
| 2026-05-04 12:26 | 43.63323 | 1.36869 | 490 ft | 7 kts | 145° |
| 2026-05-04 12:26 | 43.63279 | 1.36910 | 492 ft | 8 kts | 145° |
| 2026-05-04 12:27 | 43.63268 | 1.36921 | 494 ft | 0 kts | 145° |
| 2026-05-04 12:27 | 43.63265 | 1.36924 | 494 ft | 1 kts | 145° |